EPSC/SZZ METAR and TAF weather

Enter ICAO airport designator
Station Type Date Time Source
EPSC METAR 2018/01/19 23:00 UTC NOAA

EPSC 192300Z 15003KT 8000 BKN008 OVC010 01/00 Q1007


Station Type Date Time Source
EPSC Decoded METAR 2018/01/19 23:00 UTC NOAA

Szczecin, Poland (EPSC) 53-24N 014-37E 3M
Jan 19, 2018 - 06:00 PM EST / 2018.01.19 2300 UTC
Wind: from the SSE (150 degrees) at 3 MPH (3 KT):0
Visibility: 4 mile(s):0
Sky conditions: overcast
Temperature: 33 F (1 C)
Dew Point: 32 F (0 C)
Relative Humidity: 93%
Pressure (altimeter): 29.74 in. Hg (1007 hPa)
ob: EPSC 192300Z 15003KT 8000 BKN008 OVC010 01/00 Q1007
cycle: 23

Station Type Date Time Source
EPSC TAF 2018/01/19 18:33 UTC NOAA

TAF EPSC 191730Z 1918/2018 22005KT 8000 BKN007
TEMPO 1918/2018 3000 RASN BR BKN004 PROB40
TEMPO 2002/2010 1000 SNRA BKN002


Example: see airport list